createdAt,value
2022-11-06T00:01:09.198Z,139.75
2022-11-06T00:03:36.235Z,49.42
2022-11-06T00:06:34.509Z,77.57
2022-11-06T00:09:02.961Z,24.33
2022-11-06T00:11:30.177Z,19.73
2022-11-06T00:13:57.268Z,19.70
2022-11-06T00:16:24.379Z,16.17
2022-11-06T00:18:50.863Z,16.17
2022-11-06T00:21:19.899Z,14.38
2022-11-06T00:23:47.146Z,16.13
2022-11-06T00:26:16.529Z,14.85
2022-11-06T00:28:43.801Z,17.55
2022-11-06T00:31:13.408Z,14.18
2022-11-06T00:33:40.419Z,15.90
2022-11-06T00:36:08.972Z,19.70
2022-11-06T00:38:35.599Z,16.77
2022-11-06T00:41:04.244Z,16.00
2022-11-06T00:43:30.902Z,17.70
2022-11-06T00:46:04.224Z,22.05
2022-11-06T00:48:30.767Z,20.20
2022-11-06T00:51:03.065Z,64.95
2022-11-06T00:53:29.571Z,21.08
2022-11-06T00:56:03.076Z,17.42
2022-11-06T00:58:29.491Z,20.85
2022-11-06T01:00:55.898Z,20.90
2022-11-06T01:03:22.379Z,18.75
2022-11-06T01:05:48.778Z,17.33
2022-11-06T01:08:15.401Z,17.95
2022-11-06T01:10:42.013Z,22.83
2022-11-06T01:13:08.435Z,21.25
2022-11-06T01:15:37.074Z,17.98
2022-11-06T01:18:03.634Z,26.25
2022-11-06T01:20:30.032Z,19.38
2022-11-06T01:22:56.475Z,19.08
2022-11-06T01:25:22.896Z,20.08
2022-11-06T01:27:49.290Z,20.38
2022-11-06T01:30:15.721Z,16.95
2022-11-06T01:32:42.269Z,16.65
2022-11-06T01:35:08.939Z,16.17
2022-11-06T01:37:35.456Z,16.27
2022-11-06T01:40:02.017Z,28.88
2022-11-06T01:42:28.453Z,17.75
2022-11-06T01:45:19.701Z,17.98
2022-11-06T01:47:46.387Z,16.85
2022-11-06T01:50:15.750Z,78.43
2022-11-06T01:52:44.523Z,84.40
2022-11-06T01:55:25.628Z,129.65
2022-11-06T01:57:52.781Z,89.97
2022-11-06T02:00:20.198Z,57.03
2022-11-06T02:02:47.496Z,29.65
2022-11-06T02:05:14.311Z,18.23
2022-11-06T02:07:42.739Z,17.40
2022-11-06T02:10:09.962Z,28.55
2022-11-06T02:12:46.945Z,32.03
2022-11-06T02:15:54.553Z,34.00
2022-11-06T02:18:32.835Z,29.65
2022-11-06T02:20:59.258Z,22.60
2022-11-06T02:23:36.489Z,31.35
2022-11-06T02:26:27.290Z,24.50
2022-11-06T02:29:01.250Z,30.27
2022-11-06T02:31:32.631Z,19.15
2022-11-06T02:34:04.630Z,18.05
2022-11-06T02:36:37.638Z,23.70
2022-11-06T02:39:11.007Z,16.70
2022-11-06T02:41:42.579Z,21.15
2022-11-06T02:44:13.988Z,17.20
2022-11-06T02:49:17.297Z,19.17
2022-11-06T02:51:51.207Z,28.98
2022-11-06T02:54:20.547Z,72.13
2022-11-06T02:56:52.593Z,58.25
2022-11-06T02:59:25.463Z,32.95
2022-11-06T03:01:58.214Z,24.30
2022-11-06T03:04:33.759Z,14.88
2022-11-06T03:07:10.210Z,16.08
2022-11-06T03:09:36.927Z,17.42
2022-11-06T03:12:21.337Z,14.82
2022-11-06T03:14:59.602Z,13.55
2022-11-06T03:17:37.892Z,12.70
2022-11-06T03:20:25.588Z,12.65
2022-11-06T03:23:01.018Z,25.02
2022-11-06T03:25:35.507Z,36.63
2022-11-06T03:28:12.393Z,18.30
2022-11-06T03:30:50.698Z,32.83
2022-11-06T03:33:19.533Z,14.68
2022-11-06T03:35:54.889Z,12.30
2022-11-06T03:38:45.561Z,12.25
2022-11-06T03:41:18.392Z,12.93
2022-11-06T03:43:48.151Z,13.73
2022-11-06T03:46:19.409Z,12.25
2022-11-06T03:48:52.635Z,13.75
2022-11-06T03:51:58.376Z,15.48
2022-11-06T03:54:38.418Z,99.63
2022-11-06T03:57:47.258Z,81.57
2022-11-06T04:00:14.845Z,46.35
2022-11-06T04:02:47.382Z,24.55
2022-11-06T04:05:19.306Z,13.18
2022-11-06T04:08:08.309Z,11.77
2022-11-06T04:10:56.028Z,12.15
2022-11-06T04:13:42.860Z,14.52
2022-11-06T04:16:11.158Z,12.50
2022-11-06T04:18:37.679Z,27.92
2022-11-06T04:21:26.027Z,13.80
2022-11-06T04:24:26.422Z,16.92
2022-11-06T04:27:15.918Z,13.50
2022-11-06T04:30:13.607Z,10.57
2022-11-06T04:33:00.417Z,10.80
2022-11-06T04:35:45.049Z,15.82
2022-11-06T04:38:16.194Z,12.70
2022-11-06T04:43:28.555Z,13.75
2022-11-06T04:45:59.512Z,14.75
2022-11-06T04:48:27.162Z,13.05
2022-11-06T04:50:59.122Z,12.80
2022-11-06T04:53:26.144Z,12.88
2022-11-06T04:55:54.955Z,13.75
2022-11-06T04:58:21.439Z,17.73
2022-11-06T05:00:50.546Z,14.20
2022-11-06T05:03:18.634Z,15.18
2022-11-06T05:05:45.093Z,11.35
2022-11-06T05:08:19.596Z,12.45
2022-11-06T05:10:46.853Z,9.60
2022-11-06T05:13:14.230Z,9.43
2022-11-06T05:15:41.060Z,12.05
2022-11-06T05:18:07.568Z,15.55
2022-11-06T05:20:34.079Z,15.10
2022-11-06T05:23:00.988Z,12.23
2022-11-06T05:25:40.123Z,11.13
2022-11-06T05:28:08.345Z,10.60
2022-11-06T05:30:37.185Z,10.45
2022-11-06T05:33:03.812Z,21.48
2022-11-06T05:35:30.264Z,15.25
2022-11-06T05:38:01.808Z,12.80
2022-11-06T05:42:54.577Z,10.68
2022-11-06T05:45:21.150Z,11.73
2022-11-06T05:47:47.564Z,10.95
2022-11-06T05:50:14.010Z,13.63
2022-11-06T05:52:40.443Z,11.10
2022-11-06T05:55:11.590Z,19.02
2022-11-06T05:57:40.797Z,12.30
2022-11-06T06:00:08.162Z,9.63
2022-11-06T06:02:36.877Z,17.88
2022-11-06T06:05:04.438Z,13.90
2022-11-06T06:07:31.639Z,12.43
2022-11-06T06:09:58.172Z,31.73
2022-11-06T06:12:26.340Z,16.45
2022-11-06T06:14:53.863Z,12.57
2022-11-06T06:17:20.923Z,12.88
2022-11-06T06:19:48.245Z,12.18
2022-11-06T06:22:14.690Z,11.95
2022-11-06T06:24:41.739Z,12.93
2022-11-06T06:27:08.302Z,11.85
2022-11-06T06:29:34.748Z,12.73
2022-11-06T06:32:01.134Z,12.10
2022-11-06T06:34:27.538Z,11.45
2022-11-06T06:36:54.289Z,12.15
2022-11-06T06:39:21.389Z,11.70
2022-11-06T06:41:48.813Z,14.25
2022-11-06T06:44:16.213Z,12.40
2022-11-06T06:46:42.698Z,17.48
2022-11-06T06:49:09.167Z,20.77
2022-11-06T06:51:35.588Z,13.10
2022-11-06T06:54:03.609Z,13.20
2022-11-06T06:56:30.086Z,14.20
2022-11-06T06:58:56.579Z,15.43
2022-11-06T07:01:23.114Z,168.82
2022-11-06T07:03:49.695Z,20.80
2022-11-06T07:06:19.379Z,15.20
2022-11-06T07:08:45.981Z,15.60
2022-11-06T07:11:12.631Z,11.38
2022-11-06T07:13:39.055Z,12.45
2022-11-06T07:16:07.623Z,24.20
2022-11-06T07:18:34.915Z,72.10
2022-11-06T07:21:04.869Z,62.25
2022-11-06T07:23:31.339Z,35.20
2022-11-06T07:25:57.808Z,34.45
2022-11-06T07:28:24.228Z,60.35
2022-11-06T07:30:50.669Z,27.35
2022-11-06T07:33:17.095Z,18.00
2022-11-06T07:35:44.451Z,15.30
2022-11-06T07:38:11.025Z,20.70
2022-11-06T07:40:37.752Z,12.57
2022-11-06T07:43:09.512Z,12.20
2022-11-06T07:45:36.876Z,11.45
2022-11-06T07:48:05.039Z,10.55
2022-11-06T07:50:32.163Z,11.35
2022-11-06T07:53:03.030Z,10.45
2022-11-06T07:55:30.197Z,10.30
2022-11-06T07:57:59.339Z,15.60
2022-11-06T08:00:25.819Z,13.02
2022-11-06T08:02:53.441Z,12.10
2022-11-06T08:05:20.614Z,18.67
2022-11-06T08:07:47.186Z,19.05
2022-11-06T08:10:13.742Z,14.65
2022-11-06T08:12:40.167Z,11.43
2022-11-06T08:15:07.136Z,11.05
2022-11-06T08:17:33.547Z,9.60
2022-11-06T08:19:59.935Z,10.60
2022-11-06T08:22:26.355Z,10.48
2022-11-06T08:24:52.800Z,10.00
2022-11-06T08:27:19.248Z,8.40
2022-11-06T08:29:45.721Z,12.45
2022-11-06T08:32:12.216Z,10.02
2022-11-06T08:34:38.848Z,9.98
2022-11-06T08:37:05.362Z,9.43
2022-11-06T08:39:31.905Z,11.27
2022-11-06T08:41:58.393Z,9.02
2022-11-06T08:44:24.895Z,11.75
2022-11-06T08:46:52.253Z,9.52
2022-11-06T08:49:19.122Z,8.25
2022-11-06T08:51:45.640Z,11.30
2022-11-06T08:54:12.313Z,7.50
2022-11-06T08:56:38.920Z,11.00
2022-11-06T08:59:05.428Z,10.95
2022-11-06T09:01:32.028Z,10.68
2022-11-06T09:03:58.597Z,9.85
2022-11-06T09:06:25.736Z,8.48
2022-11-06T09:08:52.188Z,8.07
2022-11-06T09:11:18.609Z,8.45
2022-11-06T09:13:44.996Z,10.45
2022-11-06T09:16:15.567Z,7.57
2022-11-06T09:18:43.110Z,8.35
2022-11-06T09:21:09.576Z,8.75
2022-11-06T09:23:36.128Z,7.82
2022-11-06T09:26:02.572Z,8.10
2022-11-06T09:28:28.973Z,8.48
2022-11-06T09:30:55.462Z,13.18
2022-11-06T09:33:21.899Z,14.55
2022-11-06T09:35:48.309Z,25.63
2022-11-06T09:38:17.367Z,21.70
2022-11-06T09:40:53.518Z,41.95
2022-11-06T09:44:04.246Z,21.63
2022-11-06T09:46:39.012Z,49.97
2022-11-06T09:49:15.252Z,13.60
2022-11-06T09:51:44.327Z,10.93
2022-11-06T09:54:19.930Z,62.30
2022-11-06T09:56:49.684Z,27.27
2022-11-06T09:59:19.310Z,20.80
2022-11-06T10:01:51.358Z,11.32
2022-11-06T10:04:41.265Z,10.30
2022-11-06T10:07:34.194Z,12.23
2022-11-06T10:10:02.460Z,14.15
2022-11-06T10:12:39.877Z,10.20
2022-11-06T10:15:18.153Z,12.18
2022-11-06T10:18:05.935Z,11.18
2022-11-06T10:20:51.483Z,11.38
2022-11-06T10:23:50.227Z,11.00
2022-11-06T10:26:34.075Z,13.02
2022-11-06T10:29:12.731Z,14.07
2022-11-06T10:31:46.834Z,13.52
2022-11-06T10:34:21.082Z,8.00
2022-11-06T10:36:54.959Z,10.02
2022-11-06T10:39:48.517Z,9.63
2022-11-06T10:42:19.148Z,9.48
2022-11-06T10:44:56.690Z,8.60
2022-11-06T10:47:27.116Z,12.10
2022-11-06T10:49:57.355Z,9.80
2022-11-06T10:52:45.531Z,9.02
2022-11-06T10:55:36.914Z,7.90
2022-11-06T10:58:05.030Z,24.55
2022-11-06T11:00:33.671Z,15.52
2022-11-06T11:03:02.298Z,21.10
2022-11-06T11:05:40.447Z,14.43
2022-11-06T11:08:26.942Z,10.38
2022-11-06T11:11:05.335Z,9.95
2022-11-06T11:13:32.786Z,11.10
2022-11-06T11:15:59.371Z,8.15
2022-11-06T11:18:34.345Z,10.95
2022-11-06T11:21:27.786Z,7.85
2022-11-06T11:24:10.913Z,11.35
2022-11-06T11:26:46.810Z,8.85
2022-11-06T11:29:22.566Z,12.48
2022-11-06T11:31:56.242Z,10.02
2022-11-06T11:34:29.414Z,9.43
2022-11-06T11:37:04.596Z,9.73
2022-11-06T11:39:35.193Z,9.80
2022-11-06T11:42:29.474Z,8.57
2022-11-06T11:45:18.775Z,10.50
2022-11-06T11:47:51.407Z,8.25
2022-11-06T11:50:19.922Z,9.95
2022-11-06T11:52:49.597Z,8.57
2022-11-06T11:55:22.141Z,10.00
2022-11-06T11:57:51.324Z,8.43
2022-11-06T12:00:23.576Z,9.30
2022-11-06T12:02:54.498Z,9.10
2022-11-06T12:05:32.861Z,10.75
2022-11-06T12:08:00.648Z,8.95
2022-11-06T12:10:27.072Z,8.60
2022-11-06T12:12:55.700Z,8.05
2022-11-06T12:15:33.408Z,10.40
2022-11-06T12:18:16.688Z,10.02
2022-11-06T12:20:57.248Z,8.60
2022-11-06T12:23:29.491Z,10.02
2022-11-06T12:26:37.220Z,10.15
2022-11-06T12:29:15.721Z,11.25
2022-11-06T12:31:50.213Z,8.38
2022-11-06T12:34:25.936Z,9.02
2022-11-06T12:37:18.401Z,10.30
2022-11-06T12:39:52.284Z,9.80
2022-11-06T12:42:22.197Z,8.48
2022-11-06T12:44:48.734Z,8.57
2022-11-06T12:47:44.983Z,11.50
2022-11-06T12:50:27.073Z,10.45
2022-11-06T12:52:53.502Z,8.80
2022-11-06T12:55:23.075Z,10.18
2022-11-06T12:58:11.221Z,10.63
2022-11-06T13:00:58.049Z,13.05
2022-11-06T13:03:38.490Z,9.95
2022-11-06T13:06:20.430Z,9.37
2022-11-06T13:09:01.915Z,9.68
2022-11-06T13:12:03.779Z,8.73
2022-11-06T13:14:42.545Z,9.45
2022-11-06T13:17:39.377Z,15.63
2022-11-06T13:20:29.802Z,10.00
2022-11-06T13:23:19.318Z,12.65
2022-11-06T13:25:55.254Z,8.15
2022-11-06T13:28:49.777Z,11.55
2022-11-06T13:31:20.207Z,14.45
2022-11-06T13:33:54.402Z,9.50
2022-11-06T13:36:21.113Z,12.05
2022-11-06T13:38:54.995Z,9.65
2022-11-06T13:41:28.497Z,10.02
2022-11-06T13:43:58.666Z,11.05
2022-11-06T13:46:33.427Z,11.88
2022-11-06T13:49:06.924Z,10.20
2022-11-06T13:51:43.887Z,9.63
2022-11-06T13:54:22.633Z,12.05
2022-11-06T13:57:07.603Z,11.43
2022-11-06T13:59:39.997Z,13.43
2022-11-06T14:02:27.861Z,11.60
2022-11-06T14:05:24.291Z,20.60
2022-11-06T14:07:52.400Z,9.43
2022-11-06T14:10:24.498Z,11.27
2022-11-06T14:12:51.701Z,11.45
2022-11-06T14:15:21.088Z,10.00
2022-11-06T14:17:58.628Z,9.98
2022-11-06T14:20:33.579Z,10.95
2022-11-06T14:23:31.154Z,10.85
2022-11-06T14:26:08.854Z,11.27
2022-11-06T14:28:37.925Z,11.48
2022-11-06T14:31:14.655Z,8.25
2022-11-06T14:33:42.081Z,13.45
2022-11-06T14:36:14.762Z,11.40
2022-11-06T14:38:42.580Z,12.07
2022-11-06T14:41:44.345Z,11.88
2022-11-06T14:44:39.201Z,12.45
2022-11-06T14:47:08.435Z,10.25
2022-11-06T14:49:43.866Z,14.50
2022-11-06T14:52:15.662Z,18.23
2022-11-06T14:54:53.753Z,12.80
2022-11-06T14:57:43.606Z,10.73
2022-11-06T15:00:32.012Z,10.60
2022-11-06T15:02:59.262Z,8.88
2022-11-06T15:05:26.992Z,11.52
2022-11-06T15:08:15.034Z,10.65
2022-11-06T15:10:44.719Z,15.98
2022-11-06T15:13:17.210Z,12.25
2022-11-06T15:15:47.920Z,20.13
2022-11-06T15:18:22.691Z,28.77
2022-11-06T15:20:53.439Z,37.70
2022-11-06T15:23:25.173Z,66.28
2022-11-06T15:26:02.282Z,42.58
2022-11-06T15:28:34.517Z,23.58
2022-11-06T15:31:12.673Z,54.88
2022-11-06T15:33:55.728Z,70.15
2022-11-06T15:36:23.659Z,37.17
2022-11-06T15:38:50.272Z,40.17
2022-11-06T15:41:20.887Z,24.52
2022-11-06T15:43:50.574Z,36.45
2022-11-06T15:46:25.812Z,31.42
2022-11-06T15:49:16.773Z,44.08
2022-11-06T15:52:02.618Z,27.48
2022-11-06T15:54:35.992Z,22.33
2022-11-06T15:57:06.161Z,25.30
2022-11-06T15:59:32.631Z,28.80
2022-11-06T16:02:05.208Z,36.83
2022-11-06T16:04:32.569Z,24.48
2022-11-06T16:07:00.764Z,18.25
2022-11-06T16:09:27.706Z,24.83
2022-11-06T16:11:54.701Z,30.27
2022-11-06T16:14:22.180Z,25.52
2022-11-06T16:16:53.241Z,29.10
2022-11-06T16:19:19.608Z,16.17
2022-11-06T16:21:54.086Z,22.15
2022-11-06T16:24:20.640Z,16.63
2022-11-06T16:26:49.395Z,16.05
2022-11-06T16:29:23.523Z,23.65
2022-11-06T16:32:00.213Z,26.38
2022-11-06T16:34:35.733Z,26.80
2022-11-06T16:37:08.094Z,30.50
2022-11-06T16:39:53.905Z,22.30
2022-11-06T16:42:26.761Z,25.20
2022-11-06T16:44:59.396Z,27.25
2022-11-06T16:47:26.223Z,31.70
2022-11-06T16:49:54.817Z,37.42
2022-11-06T16:52:34.792Z,47.15
2022-11-06T16:55:07.104Z,35.22
2022-11-06T16:57:36.968Z,39.65
2022-11-06T17:00:15.591Z,42.08
2022-11-06T17:02:50.691Z,37.33
2022-11-06T17:05:21.643Z,41.20
2022-11-06T17:07:49.276Z,38.72
2022-11-06T17:10:34.352Z,42.63
2022-11-06T17:13:19.994Z,39.90
2022-11-06T17:15:51.699Z,32.58
2022-11-06T17:18:21.513Z,28.77
2022-11-06T17:20:52.155Z,27.27
2022-11-06T17:23:19.314Z,28.48
2022-11-06T17:25:46.923Z,39.90
2022-11-06T17:28:13.564Z,50.78
2022-11-06T17:30:40.330Z,42.13
2022-11-06T17:33:06.982Z,34.83
2022-11-06T17:35:33.528Z,25.95
2022-11-06T17:38:06.130Z,23.42
2022-11-06T17:40:33.744Z,26.10
2022-11-06T17:43:00.260Z,37.40
2022-11-06T17:45:26.679Z,22.80
2022-11-06T17:47:53.774Z,24.38
2022-11-06T17:50:20.239Z,20.13
2022-11-06T17:52:46.972Z,19.00
2022-11-06T17:55:13.535Z,16.80
2022-11-06T17:57:40.135Z,41.22
2022-11-06T18:00:07.283Z,61.78
2022-11-06T18:02:58.980Z,48.20
2022-11-06T18:05:20.184Z,44.00
2022-11-06T18:07:46.596Z,38.40
2022-11-06T18:10:13.017Z,41.42
2022-11-06T18:12:39.478Z,38.25
2022-11-06T18:15:06.540Z,33.08
2022-11-06T18:17:33.001Z,36.70
2022-11-06T18:19:59.427Z,35.35
2022-11-06T18:22:25.865Z,42.35
2022-11-06T18:24:52.269Z,50.60
2022-11-06T18:27:18.742Z,32.30
2022-11-06T18:29:45.253Z,27.75
2022-11-06T18:32:11.678Z,29.10
2022-11-06T18:34:38.183Z,28.85
2022-11-06T18:37:04.680Z,26.05
2022-11-06T18:39:31.139Z,29.77
2022-11-06T18:41:58.881Z,34.67
2022-11-06T18:44:25.430Z,34.33
2022-11-06T18:46:52.034Z,26.58
2022-11-06T18:49:18.436Z,26.40
2022-11-06T18:51:44.980Z,26.70
2022-11-06T18:54:12.127Z,27.48
2022-11-06T18:56:38.925Z,30.52
2022-11-06T18:59:07.573Z,31.02
2022-11-06T19:01:35.256Z,52.15
2022-11-06T19:04:03.632Z,79.25
2022-11-06T19:06:31.045Z,68.22
2022-11-06T19:08:57.936Z,59.28
2022-11-06T19:11:24.448Z,55.35
2022-11-06T19:13:50.903Z,55.30
2022-11-06T19:16:19.435Z,33.33
2022-11-06T19:18:47.216Z,36.50
2022-11-06T19:21:13.985Z,35.28
2022-11-06T19:23:42.444Z,46.67
2022-11-06T19:26:30.763Z,35.60
2022-11-06T19:28:59.694Z,50.38
2022-11-06T19:31:28.621Z,66.32
2022-11-06T19:33:56.315Z,44.50
2022-11-06T19:36:22.747Z,48.00
2022-11-06T19:38:49.152Z,42.05
2022-11-06T19:41:15.561Z,43.38
2022-11-06T19:43:42.024Z,44.85
2022-11-06T19:46:08.638Z,42.08
2022-11-06T19:48:36.067Z,48.47
2022-11-06T19:51:03.012Z,51.88
2022-11-06T19:53:29.570Z,54.47
2022-11-06T19:55:56.762Z,44.22
2022-11-06T19:58:23.248Z,38.10
2022-11-06T20:00:49.792Z,43.40
2022-11-06T20:03:16.996Z,36.92
2022-11-06T20:05:43.646Z,38.35
2022-11-06T20:08:10.357Z,35.90
2022-11-06T20:10:37.313Z,36.28
2022-11-06T20:13:04.446Z,35.22
2022-11-06T20:15:31.330Z,34.70
2022-11-06T20:17:57.846Z,31.10
2022-11-06T20:20:25.846Z,24.73
2022-11-06T20:22:53.316Z,24.45
2022-11-06T20:25:20.079Z,26.88
2022-11-06T20:27:46.556Z,28.90
2022-11-06T20:30:13.903Z,33.72
2022-11-06T20:32:40.516Z,32.60
2022-11-06T20:35:07.705Z,37.00
2022-11-06T20:37:34.455Z,37.92
2022-11-06T20:40:00.898Z,34.88
2022-11-06T20:42:27.405Z,31.35
2022-11-06T20:44:53.826Z,33.97
2022-11-06T20:47:20.375Z,35.78
2022-11-06T20:49:46.808Z,36.97
2022-11-06T20:52:14.804Z,37.15
2022-11-06T20:54:46.786Z,28.30
2022-11-06T20:57:15.703Z,30.17
2022-11-06T20:59:42.576Z,30.42
2022-11-06T21:02:11.868Z,27.88
2022-11-06T21:04:38.667Z,27.00
2022-11-06T21:07:05.374Z,27.83
2022-11-06T21:09:31.836Z,26.45
2022-11-06T21:11:58.443Z,28.30
2022-11-06T21:14:25.030Z,27.30
2022-11-06T21:16:52.568Z,22.75
2022-11-06T21:19:19.047Z,27.77
2022-11-06T21:21:45.527Z,23.27
2022-11-06T21:24:12.207Z,21.70
2022-11-06T21:26:39.150Z,21.63
2022-11-06T21:29:08.011Z,25.23
2022-11-06T21:31:34.627Z,22.73
2022-11-06T21:34:02.878Z,24.13
2022-11-06T21:36:37.369Z,18.83
2022-11-06T21:39:09.217Z,21.17
2022-11-06T21:41:36.413Z,23.60
2022-11-06T21:44:04.674Z,19.65
2022-11-06T21:46:31.207Z,22.23
2022-11-06T21:48:58.295Z,23.70
2022-11-06T21:51:27.295Z,20.77
2022-11-06T21:54:13.128Z,20.55
2022-11-06T21:56:40.811Z,22.38
2022-11-06T21:59:10.239Z,22.50
2022-11-06T22:01:37.652Z,35.72
2022-11-06T22:04:05.079Z,24.63
2022-11-06T22:06:31.542Z,20.27
2022-11-06T22:08:59.795Z,25.52
2022-11-06T22:11:27.465Z,26.52
2022-11-06T22:13:55.608Z,106.40
2022-11-06T22:16:26.375Z,34.28
2022-11-06T22:18:53.145Z,21.73
2022-11-06T22:21:22.213Z,23.17
2022-11-06T22:23:49.085Z,19.80
2022-11-06T22:26:18.885Z,50.40
2022-11-06T22:28:45.414Z,30.58
2022-11-06T22:31:12.494Z,25.23
2022-11-06T22:33:39.595Z,26.15
2022-11-06T22:36:14.277Z,24.70
2022-11-06T22:38:42.139Z,21.90
2022-11-06T22:41:13.151Z,35.55
2022-11-06T22:43:40.646Z,31.00
2022-11-06T22:46:33.681Z,26.80
2022-11-06T22:49:00.159Z,29.90
2022-11-06T22:51:29.192Z,35.88
2022-11-06T22:53:56.307Z,29.67
2022-11-06T22:56:24.335Z,26.45
2022-11-06T22:58:59.764Z,28.70
2022-11-06T23:01:29.075Z,27.85
2022-11-06T23:03:58.243Z,26.88
2022-11-06T23:06:26.090Z,29.75
2022-11-06T23:08:52.745Z,25.08
2022-11-06T23:11:19.778Z,27.88
2022-11-06T23:13:46.321Z,23.83
2022-11-06T23:16:38.882Z,27.35
2022-11-06T23:19:05.436Z,21.98
2022-11-06T23:21:31.850Z,30.63
2022-11-06T23:23:58.284Z,22.02
2022-11-06T23:26:24.840Z,22.90
2022-11-06T23:28:51.267Z,20.80
2022-11-06T23:31:17.760Z,20.45
2022-11-06T23:33:44.161Z,17.30
2022-11-06T23:36:15.750Z,22.63
2022-11-06T23:38:43.161Z,20.88
2022-11-06T23:41:30.681Z,19.70
2022-11-06T23:43:58.278Z,20.52
2022-11-06T23:46:27.534Z,24.35
2022-11-06T23:48:54.116Z,21.52
2022-11-06T23:51:20.985Z,24.67
2022-11-06T23:53:47.391Z,22.20
2022-11-06T23:56:14.388Z,25.13
2022-11-06T23:58:41.816Z,21.50
